Time,TemperatureF,DewpointF,PressureIn,WindDirection,WindDirectionDegrees,WindSpeedMPH,WindSpeedGustMPH,Humidity,HourlyPrecipIn,Conditions,Clouds,dailyrainin,SoftwareType,DateUTC
2013-07-27 00:00:00,76.5,68.0,29.84,SSE,157,2.2,-999.0,75,-99.99,,,0.00,Acu-Link.com,2013-07-27 04:00:00,
2013-07-27 00:15:00,76.1,68.0,29.84,NE,45,5.3,-999.0,76,-99.99,,,0.00,Acu-Link.com,2013-07-27 04:15:00,
2013-07-27 00:33:00,76.1,68.0,29.84,ESE,112,2.7,-999.0,76,-99.99,,,0.00,Acu-Link.com,2013-07-27 04:33:00,
2013-07-27 00:49:00,75.9,68.2,29.84,ENE,67,0.0,-999.0,77,-99.99,,,0.00,Acu-Link.com,2013-07-27 04:49:00,
2013-07-27 01:04:00,75.7,68.0,29.83,ENE,67,1.1,-999.0,77,-99.99,,,0.00,Acu-Link.com,2013-07-27 05:04:00,
2013-07-27 01:19:00,75.7,67.6,29.83,NE,45,2.7,-999.0,76,-99.99,,,0.00,Acu-Link.com,2013-07-27 05:19:00,
2013-07-27 01:34:00,75.6,67.5,29.84,SE,135,0.0,-999.0,76,-99.99,,,0.00,Acu-Link.com,2013-07-27 05:34:00,
2013-07-27 01:49:00,74.7,67.7,29.84,WNW,292,0.0,-999.0,79,-99.99,,,0.00,Acu-Link.com,2013-07-27 05:49:00,
2013-07-27 02:04:00,73.8,67.6,29.83,NNW,337,0.0,-999.0,81,-99.99,,,0.00,Acu-Link.com,2013-07-27 06:04:00,
2013-07-27 02:19:00,73.0,67.2,29.82,NNW,337,0.0,-999.0,82,-99.99,,,0.00,Acu-Link.com,2013-07-27 06:19:00,
2013-07-27 02:34:00,72.5,67.0,29.82,NNW,337,0.0,-999.0,83,-99.99,,,0.00,Acu-Link.com,2013-07-27 06:34:00,
2013-07-27 02:50:00,72.3,67.2,29.82,NNW,337,0.0,-999.0,84,-99.99,,,0.00,Acu-Link.com,2013-07-27 06:50:00,
2013-07-27 03:05:00,72.1,67.3,29.82,NNW,337,0.0,-999.0,85,-99.99,,,0.00,Acu-Link.com,2013-07-27 07:05:00,
2013-07-27 03:20:00,72.1,67.7,29.81,NE,45,0.0,-999.0,86,-99.99,,,0.00,Acu-Link.com,2013-07-27 07:20:00,
2013-07-27 03:35:00,72.0,67.2,29.81,East,90,0.0,-999.0,85,-99.99,,,0.00,Acu-Link.com,2013-07-27 07:35:00,
2013-07-27 03:50:00,71.4,66.6,29.80,NNE,22,0.0,-999.0,85,-99.99,,,0.00,Acu-Link.com,2013-07-27 07:50:00,
2013-07-27 04:05:00,71.1,66.4,29.80,ESE,112,0.0,-999.0,85,-99.99,,,0.00,Acu-Link.com,2013-07-27 08:05:00,
2013-07-27 04:20:00,71.1,66.4,29.80,NNE,22,0.0,-999.0,85,-99.99,,,0.00,Acu-Link.com,2013-07-27 08:20:00,
2013-07-27 04:35:00,70.9,66.5,29.80,NNE,22,0.0,-999.0,86,-99.99,,,0.00,Acu-Link.com,2013-07-27 08:35:00,
2013-07-27 04:50:00,70.5,66.1,29.80,ESE,112,0.0,-999.0,86,-99.99,,,0.00,Acu-Link.com,2013-07-27 08:50:00,
2013-07-27 05:06:00,70.2,65.8,29.80,North,0,0.0,-999.0,86,-99.99,,,0.00,Acu-Link.com,2013-07-27 09:06:00,
2013-07-27 05:23:00,70.2,65.8,29.81,NE,45,0.0,-999.0,86,-99.99,,,0.00,Acu-Link.com,2013-07-27 09:23:00,
2013-07-27 05:38:00,69.8,65.7,29.80,NE,45,0.0,-999.0,87,-99.99,,,0.00,Acu-Link.com,2013-07-27 09:38:00,
2013-07-27 05:53:00,69.6,65.9,29.80,NE,45,1.7,-999.0,88,-99.99,,,0.00,Acu-Link.com,2013-07-27 09:53:00,
2013-07-27 06:08:00,69.4,65.7,29.80,NE,45,0.0,-999.0,88,-99.99,,,0.00,Acu-Link.com,2013-07-27 10:08:00,
2013-07-27 06:24:00,69.3,65.6,29.80,NE,45,0.0,-999.0,88,-99.99,,,0.00,Acu-Link.com,2013-07-27 10:24:00,
2013-07-27 06:39:00,69.3,65.6,29.80,NE,45,0.0,-999.0,88,-99.99,,,0.00,Acu-Link.com,2013-07-27 10:39:00,
2013-07-27 06:54:00,69.8,66.1,29.81,NE,45,0.0,-999.0,88,-99.99,,,0.00,Acu-Link.com,2013-07-27 10:54:00,
2013-07-27 07:09:00,70.5,66.8,29.82,NE,45,0.0,-999.0,88,-99.99,,,0.00,Acu-Link.com,2013-07-27 11:09:00,
2013-07-27 07:24:00,72.1,68.3,29.81,ENE,67,0.0,-999.0,88,-99.99,,,0.00,Acu-Link.com,2013-07-27 11:24:00,
2013-07-27 07:39:00,74.8,69.6,29.81,NE,45,0.0,-999.0,84,-99.99,,,0.00,Acu-Link.com,2013-07-27 11:39:00,
2013-07-27 07:54:00,76.3,69.7,29.81,East,90,0.0,-999.0,80,-99.99,,,0.00,Acu-Link.com,2013-07-27 11:54:00,
2013-07-27 08:09:00,76.6,70.0,29.81,ENE,67,0.0,-999.0,80,-99.99,,,0.00,Acu-Link.com,2013-07-27 12:09:00,
2013-07-27 08:24:00,77.7,70.3,29.82,SE,135,0.0,-999.0,78,-99.99,,,0.00,Acu-Link.com,2013-07-27 12:24:00,
2013-07-27 08:39:00,78.8,70.6,29.81,ENE,67,0.0,-999.0,76,-99.99,,,0.00,Acu-Link.com,2013-07-27 12:39:00,
2013-07-27 08:55:00,79.9,71.2,29.81,NE,45,2.7,-999.0,75,-99.99,,,0.00,Acu-Link.com,2013-07-27 12:55:00,
2013-07-27 09:11:00,82.0,71.6,29.81,ESE,112,2.2,-999.0,71,-99.99,,,0.00,Acu-Link.com,2013-07-27 13:11:00,
2013-07-27 09:42:00,83.3,72.0,29.82,ENE,67,2.2,-999.0,69,-99.99,,,0.00,Acu-Link.com,2013-07-27 13:42:00,
2013-07-27 09:57:00,83.5,72.2,29.82,East,90,1.7,-999.0,69,-99.99,,,0.00,Acu-Link.com,2013-07-27 13:57:00,
2013-07-27 10:14:00,84.2,70.2,29.82,NE,45,2.7,-999.0,63,-99.99,,,0.00,Acu-Link.com,2013-07-27 14:14:00,
2013-07-27 10:30:00,84.6,71.1,29.81,ENE,67,0.0,-999.0,64,-99.99,,,0.00,Acu-Link.com,2013-07-27 14:30:00,
2013-07-27 10:50:00,87.8,72.2,29.82,East,90,2.7,-999.0,60,-99.99,,,0.00,Acu-Link.com,2013-07-27 14:50:00,
2013-07-27 11:05:00,88.2,71.5,29.81,ESE,112,2.2,-999.0,58,-99.99,,,0.00,Acu-Link.com,2013-07-27 15:05:00,
2013-07-27 17:10:00,88.0,74.7,29.78,ESE,112,1.1,-999.0,65,-99.99,,,0.00,Acu-Link.com,2013-07-27 21:10:00,
2013-07-27 18:11:00,86.5,73.3,29.77,SW,225,1.1,-999.0,65,-99.99,,,0.00,Acu-Link.com,2013-07-27 22:11:00,
2013-07-27 18:28:00,86.0,73.3,29.77,South,180,2.7,-999.0,66,-99.99,,,0.00,Acu-Link.com,2013-07-27 22:28:00,
2013-07-27 18:43:00,85.8,73.5,29.79,SSE,157,2.2,-999.0,67,-99.99,,,0.00,Acu-Link.com,2013-07-27 22:43:00,
2013-07-27 18:59:00,84.6,72.4,29.79,South,180,1.7,-999.0,67,-99.99,,,0.00,Acu-Link.com,2013-07-27 22:59:00,
2013-07-27 19:16:00,84.0,72.7,29.78,East,90,2.2,-999.0,69,-99.99,,,0.00,Acu-Link.com,2013-07-27 23:16:00,
2013-07-27 19:59:00,83.8,72.5,29.78,ESE,112,1.1,-999.0,69,-99.99,,,0.00,Acu-Link.com,2013-07-27 23:59:00,
2013-07-27 20:33:00,80.8,71.3,29.76,ESE,112,1.7,-999.0,73,-99.99,,,0.00,Acu-Link.com,2013-07-28 00:33:00,
2013-07-27 20:48:00,80.4,71.3,29.77,East,90,1.7,-999.0,74,-99.99,,,0.00,Acu-Link.com,2013-07-28 00:48:00,
2013-07-27 21:03:00,80.2,71.1,29.78,WSW,247,1.1,-999.0,74,-99.99,,,0.00,Acu-Link.com,2013-07-28 01:03:00,
2013-07-27 21:18:00,80.1,71.0,29.78,SSW,202,2.2,-999.0,74,-99.99,,,0.00,Acu-Link.com,2013-07-28 01:18:00,
2013-07-27 21:33:00,79.9,71.2,29.78,SSW,202,2.2,-999.0,75,-99.99,,,0.00,Acu-Link.com,2013-07-28 01:33:00,
2013-07-27 21:50:00,79.9,71.2,29.77,ESE,112,1.1,-999.0,75,-99.99,,,0.00,Acu-Link.com,2013-07-28 01:50:00,
2013-07-27 22:06:00,79.9,71.2,29.78,ESE,112,2.7,-999.0,75,-99.99,,,0.00,Acu-Link.com,2013-07-28 02:06:00,
2013-07-27 22:21:00,79.7,71.4,29.78,ESE,112,0.0,-999.0,76,-99.99,,,0.00,Acu-Link.com,2013-07-28 02:21:00,
2013-07-27 22:36:00,79.7,72.6,29.78,SE,135,1.1,-999.0,79,-99.99,,,0.00,Acu-Link.com,2013-07-28 02:36:00,
2013-07-27 23:21:00,79.2,72.5,29.79,WNW,292,1.7,-999.0,80,-99.99,,,0.00,Acu-Link.com,2013-07-28 03:21:00,